Dzhusaly, Kazakhstan
Current Conditions -  °F | °C
As of 10:00 PM on Friday 28 Nov 2014 (Local Time) from UAOO Reporting Station
Clear Clear  
Wind Chill: -2°   Ceiling: Unl
Heat Index: 14°   Visibility: 6mi
Dew Point:   Wind: 16mph
Humidity: 79%   Direction: 60°ENE
Pressure: 30.56"   Gusts: NA
Location:  45.5°N, 64.09°E
Report Text: UAOO 281700Z 06007MPS CAVOK M10/M13 Q1035 NOSIG RMKQFE764/1019
Loading
Personal Weather Stations






























Interactive Weather Map New forecast layout! Learn more

10-Day Weather Forecast

Advertisements
Track Severe Weather on mobile